AAL1040 KBDL-KBOS
Flight info
| Callsign | AAL1040 |
|---|---|
| Flight time | N/A |
| Altitude | 17000 |
| Route | HFD T216 THUMB RUIZE ROBUC3 |
| Aircraft | B738/M-SDE2E3FGHIRWXY/LB1 |
Departure
| Time | 2026-05-06 23:48 |
|---|---|
| Airport | Bradley International Airport (KBDL) |
Arrival
| Time | N/A |
|---|---|
| Airport | Boston Logan International Airport (KBOS) |
| Time | Latitude | Longitude | Altitude | Speed | Heading |
|---|---|---|---|---|---|
| 2026-05-06 23:16 | 41.93200 | -72.68327 | 180 ft | 0 kts | 236° |
| 2026-05-06 23:33 | 41.93203 | -72.68323 | 177 ft | 2 kts | 235° |
| 2026-05-06 23:33 | 41.93213 | -72.68302 | 183 ft | 3 kts | 234° |
| 2026-05-06 23:33 | 41.93225 | -72.68280 | 179 ft | 3 kts | 233° |
| 2026-05-06 23:33 | 41.93237 | -72.68258 | 179 ft | 3 kts | 234° |
| 2026-05-06 23:34 | 41.93249 | -72.68236 | 178 ft | 3 kts | 239° |
| 2026-05-06 23:34 | 41.93258 | -72.68213 | 177 ft | 3 kts | 258° |
| 2026-05-06 23:34 | 41.93258 | -72.68193 | 177 ft | 2 kts | 307° |
| 2026-05-06 23:34 | 41.93257 | -72.68189 | 177 ft | 1 kts | 314° |
| 2026-05-06 23:36 | 41.93259 | -72.68192 | 177 ft | 1 kts | 314° |
| 2026-05-06 23:36 | 41.93272 | -72.68210 | 177 ft | 4 kts | 314° |
| 2026-05-06 23:37 | 41.93298 | -72.68248 | 177 ft | 7 kts | 313° |
| 2026-05-06 23:37 | 41.93337 | -72.68302 | 177 ft | 10 kts | 314° |
| 2026-05-06 23:37 | 41.93393 | -72.68379 | 176 ft | 14 kts | 314° |
| 2026-05-06 23:37 | 41.93465 | -72.68477 | 177 ft | 15 kts | 314° |
| 2026-05-06 23:38 | 41.93537 | -72.68575 | 180 ft | 15 kts | 314° |
| 2026-05-06 23:38 | 41.93614 | -72.68681 | 181 ft | 14 kts | 315° |
| 2026-05-06 23:38 | 41.93669 | -72.68728 | 182 ft | 9 kts | 351° |
| 2026-05-06 23:38 | 41.93714 | -72.68706 | 182 ft | 7 kts | 36° |
| 2026-05-06 23:39 | 41.93761 | -72.68652 | 182 ft | 10 kts | 43° |
| 2026-05-06 23:39 | 41.93798 | -72.68604 | 182 ft | 12 kts | 44° |
| 2026-05-06 23:39 | 41.93867 | -72.68517 | 180 ft | 16 kts | 43° |
| 2026-05-06 23:39 | 41.93953 | -72.68412 | 181 ft | 17 kts | 43° |
| 2026-05-06 23:40 | 41.94038 | -72.68309 | 183 ft | 16 kts | 41° |
| 2026-05-06 23:40 | 41.94120 | -72.68211 | 183 ft | 15 kts | 41° |
| 2026-05-06 23:40 | 41.94199 | -72.68116 | 192 ft | 15 kts | 41° |
| 2026-05-06 23:40 | 41.94271 | -72.68020 | 183 ft | 15 kts | 45° |
| 2026-05-06 23:41 | 41.94342 | -72.67927 | 182 ft | 14 kts | 44° |
| 2026-05-06 23:41 | 41.94413 | -72.67836 | 181 ft | 14 kts | 43° |
| 2026-05-06 23:41 | 41.94489 | -72.67740 | 177 ft | 16 kts | 43° |
| 2026-05-06 23:41 | 41.94571 | -72.67638 | 177 ft | 16 kts | 43° |
| 2026-05-06 23:42 | 41.94648 | -72.67538 | 176 ft | 15 kts | 44° |
| 2026-05-06 23:42 | 41.94722 | -72.67441 | 177 ft | 15 kts | 44° |
| 2026-05-06 23:42 | 41.94793 | -72.67349 | 178 ft | 14 kts | 44° |
| 2026-05-06 23:42 | 41.94861 | -72.67260 | 178 ft | 13 kts | 44° |
| 2026-05-06 23:43 | 41.94920 | -72.67182 | 178 ft | 11 kts | 44° |
| 2026-05-06 23:43 | 41.94985 | -72.67151 | 178 ft | 9 kts | 348° |
| 2026-05-06 23:43 | 41.94995 | -72.67156 | 178 ft | 0 kts | 337° |
| 2026-05-06 23:45 | 41.95001 | -72.67161 | 178 ft | 2 kts | 332° |
| 2026-05-06 23:45 | 41.95019 | -72.67183 | 178 ft | 5 kts | 309° |
| 2026-05-06 23:45 | 41.95030 | -72.67229 | 177 ft | 6 kts | 275° |
| 2026-05-06 23:46 | 41.95019 | -72.67277 | 177 ft | 6 kts | 236° |
| 2026-05-06 23:46 | 41.94993 | -72.67315 | 177 ft | 5 kts | 224° |
| 2026-05-06 23:46 | 41.94988 | -72.67321 | 177 ft | 0 kts | 224° |
| 2026-05-06 23:46 | 41.94986 | -72.67323 | 177 ft | 1 kts | 224° |
| 2026-05-06 23:47 | 41.94981 | -72.67330 | 177 ft | 1 kts | 224° |
| 2026-05-06 23:47 | 41.94970 | -72.67345 | 177 ft | 6 kts | 224° |
| 2026-05-06 23:47 | 41.94767 | -72.67609 | 175 ft | 81 kts | 224° |
| 2026-05-06 23:47 | 41.94181 | -72.68356 | 203 ft | 147 kts | 220° |
| 2026-05-06 23:48 | 41.93346 | -72.69377 | 634 ft | 173 kts | 219° |
| 2026-05-06 23:48 | 41.92365 | -72.70420 | 1293 ft | 188 kts | 203° |
| 2026-05-06 23:48 | 41.91035 | -72.70435 | 1894 ft | 213 kts | 165° |
| 2026-05-06 23:48 | 41.89659 | -72.69343 | 2130 ft | 246 kts | 153° |
| 2026-05-06 23:49 | 41.88135 | -72.68077 | 2590 ft | 265 kts | 156° |
| 2026-05-06 23:49 | 41.86515 | -72.66869 | 3396 ft | 268 kts | 158° |
| 2026-05-06 23:49 | 41.84849 | -72.65752 | 3829 ft | 264 kts | 161° |
| 2026-05-06 23:49 | 41.83206 | -72.64744 | 3990 ft | 257 kts | 162° |
| 2026-05-06 23:50 | 41.81574 | -72.63808 | 4033 ft | 254 kts | 164° |
| 2026-05-06 23:50 | 41.78248 | -72.62010 | 5272 ft | 257 kts | 165° |
| 2026-05-06 23:50 | 41.76580 | -72.61130 | 6317 ft | 258 kts | 165° |
| 2026-05-06 23:51 | 41.74896 | -72.60253 | 7192 ft | 262 kts | 166° |
| 2026-05-06 23:51 | 41.73186 | -72.59368 | 8110 ft | 264 kts | 167° |
| 2026-05-06 23:51 | 41.71452 | -72.58476 | 8996 ft | 269 kts | 167° |
| 2026-05-06 23:51 | 41.69707 | -72.57579 | 9861 ft | 273 kts | 167° |
| 2026-05-06 23:52 | 41.67926 | -72.56664 | 10702 ft | 275 kts | 168° |
| 2026-05-06 23:52 | 41.66129 | -72.55742 | 11556 ft | 277 kts | 169° |
| 2026-05-06 23:52 | 41.64337 | -72.54726 | 12409 ft | 288 kts | 158° |
| 2026-05-06 23:52 | 41.62812 | -72.52836 | 13217 ft | 307 kts | 139° |
| 2026-05-06 23:53 | 41.61439 | -72.50622 | 14000 ft | 312 kts | 138° |
| 2026-05-06 23:53 | 41.60058 | -72.48353 | 14720 ft | 316 kts | 138° |
| 2026-05-06 23:53 | 41.58661 | -72.46071 | 15505 ft | 317 kts | 138° |
| 2026-05-06 23:53 | 41.57266 | -72.43818 | 16271 ft | 320 kts | 139° |
| 2026-05-06 23:54 | 41.55831 | -72.41524 | 16876 ft | 323 kts | 139° |
| 2026-05-06 23:54 | 41.54375 | -72.39209 | 17015 ft | 331 kts | 139° |
| 2026-05-06 23:54 | 41.52861 | -72.36755 | 17048 ft | 358 kts | 134° |
| 2026-05-06 23:54 | 41.51558 | -72.33748 | 17052 ft | 391 kts | 120° |
| 2026-05-06 23:55 | 41.50523 | -72.30260 | 17057 ft | 414 kts | 116° |
| 2026-05-06 23:55 | 41.49502 | -72.26565 | 17056 ft | 433 kts | 115° |
| 2026-05-06 23:55 | 41.48767 | -72.22559 | 17030 ft | 459 kts | 99° |
| 2026-05-06 23:55 | 41.48869 | -72.18229 | 17047 ft | 479 kts | 82° |
| 2026-05-06 23:56 | 41.49870 | -72.13937 | 17051 ft | 491 kts | 68° |
| 2026-05-06 23:56 | 41.51254 | -72.09748 | 17039 ft | 491 kts | 66° |
| 2026-05-06 23:56 | 41.52672 | -72.05631 | 17029 ft | 487 kts | 65° |